GMME/RBA METAR and TAF weather

Enter ICAO airport designator
Station Type Date Time Source
GMME METAR 2020/07/11 16:00 UTC NOAA

GMME 111600Z 29011KT 8000 NSC 27/22 Q1009 NOSIG


Station Type Date Time Source
GMME Decoded METAR 2020/07/11 16:00 UTC NOAA

Rabat-Sale, Morocco (GMME) 34-03N 006-46W 75M
Jul 11, 2020 - 12:00 PM EDT / 2020.07.11 1600 UTC
Wind: from the WNW (290 degrees) at 13 MPH (11 KT):0
Visibility: 4 mile(s):0
Temperature: 80 F (27 C)
Dew Point: 71 F (22 C)
Relative Humidity: 74%
Pressure (altimeter): 29.80 in. Hg (1009 hPa)
ob: GMME 111600Z 29011KT 8000 NSC 27/22 Q1009 NOSIG
cycle: 16

Station Type Date Time Source
GMME TAF 2020/07/11 12:21 UTC NOAA

TAF TAF GMME 111100Z 1112/1218 32008KT 8000 NSC
TEMPO 1118/1124 26004KT 5000 SCT005
TEMPO 1200/1206 VRB02KT PROB30
TEMPO 1205/1209 3000 BR BKN004
BECMG 1209/1212 6000 NSW NSC

Example: see airport list